KRNC/RNC METAR and TAF weather

Enter ICAO airport designator
Station Type Date Time Source
KRNC METAR 2022/01/19 20:55 UTC NOAA

KRNC 192055Z AUTO 20007G21KT 170V230 10SM FEW030 SCT080 15/09 A2996 RMK A01


Station Type Date Time Source
KRNC Decoded METAR 2022/01/19 20:55 UTC NOAA

Station name not available
Jan 19, 2022 - 03:55 PM EST / 2022.01.19 2055 UTC
Wind: from the SSW (200 degrees) at 8 MPH (7 KT) gusting to 24 MPH (21 KT) (direction variable):0
Visibility: 10 mile(s):0
Sky conditions: partly cloudy
Temperature: 59 F (15 C)
Dew Point: 48 F (9 C)
Relative Humidity: 67%
Pressure (altimeter): 29.96 in. Hg (1014 hPa)
ob: KRNC 192055Z AUTO 20007G21KT 170V230 10SM FEW030 SCT080 15/09 A2996 RMK A01
cycle: 21

Station Type Date Time Source
KRNC TAF 2009/08/31 19:45 UTC NOAA

METAR KRNC 311945Z AUTO 35008KT 10SM CLR 25/12 A3011
RMK AO1 T02500116 $

Example: see airport list